Latest Coastal Weather Observations for Esperance

IDW60701

Issued at 4:43 pm WST Tuesday 27 September 2016 (issued every 10 minutes, with the page automatically refreshed every 10 minutes)

About coastal observations | Map of coastal stations | Coastal observations for WA | Marine services | Other Formats
Station Details ID: 009789 Name: ESPERANCE Lat: -33.83 Lon: 121.89 Height: 25.0 m
Data from the previous 72 hours. | See also: Recent months at Esperance
Date/Time
WST
Temp
°C
Wind Pressure Rain since
9am
mm
Weather Cloud Vis
km
Sea
Height
m
Swell
Dir  Spd
kts
Gust
kts
hPa Trend Height
m
Period
s
Dir
27/04:30pm 20.8 NW 18 27 1000.2 - 0.0 - Cloudy 10 - - - -
27/04:00pm 21.0 NW 18 24 1000.2 - 0.0 - Cloudy 10 - - - -
27/03:30pm 21.0 NW 17 25 1001.3 - 0.0 - Partly cloudy 10 - - - -
27/03:00pm 22.3 NW 17 22 1002.0 F 0.0 - - 10 - - - -
27/02:30pm 21.7 NW 17 23 1002.8 - 0.0 - Partly cloudy 10 - - - -
27/02:00pm 21.5 NW 16 27 1003.9 - 0.0 - Partly cloudy 10 - - - -
27/01:53pm 21.4 NW 16 27 1004.1 - 0.0 - Partly cloudy 10 - - - -
27/01:30pm 20.7 WNW 13 20 1004.9 - 0.0 - Partly cloudy 10 - - - -
27/01:00pm 20.6 NW 14 19 1005.6 - 0.0 - Partly cloudy 10 - - - -
27/12:30pm 19.1 NW 14 18 1006.4 - 0.0 - Mostly cloudy 10 - - - -
27/12:00pm 18.9 WNW 11 16 1007.4 F 0.0 - Cloudy 10 - - - -
27/11:30am 18.1 NW 12 17 1008.3 - 0.0 - Mostly clear 10 - - - -
27/11:00am 17.6 NW 10 13 1009.3 - 0.0 - Mostly clear 10 - - - -
27/10:30am 17.4 NW 10 13 1010.0 - 0.0 - Partly cloudy 10 - - - -
27/10:00am 17.3 NW 11 13 1010.7 - 0.0 - Mostly clear 10 - - - -
27/09:30am 16.3 NW 11 17 1011.6 - 0.0 - Mostly clear 10 - - - -
27/09:00am 15.7 NW 11 14 1012.1 F 0.0 - Mostly clear 10 - - - -
27/08:30am 14.4 NW 11 16 1012.6 - 0.0 - Mostly clear 10 - - - -
27/08:00am 13.8 WNW 10 13 1012.7 - 0.0 - - 10 - - - -
27/07:30am 12.7 NW 10 14 1013.1 - 0.0 - - 10 - - - -
27/07:00am 11.3 NW 11 15 1013.2 - 0.0 - Partly cloudy 10 - - - -
27/06:30am 10.4 NW 9 12 1013.5 - 0.0 - Partly cloudy 10 - - - -
27/06:00am 9.3 NW 9 11 1013.5 F 0.0 - - 10 - - - -
27/05:30am 9.4 NW 8 11 1013.4 - 0.0 - Partly cloudy 10 - - - -
27/05:00am 9.8 NW 9 11 1013.5 - 0.0 - Partly cloudy 10 - - - -
27/04:30am 10.4 NW 9 12 1013.5 - 0.0 - - 10 - - - -
27/04:00am 10.7 NW 10 16 1013.3 - 0.0 - - 10 - - - -
27/03:30am 10.7 NW 10 15 1013.4 - 0.0 - Partly cloudy 10 - - - -
27/03:00am 11.1 WNW 9 11 1013.4 F 0.0 - Mostly cloudy 10 - - - -
27/02:30am 11.2 NW 9 12 1013.4 - 0.0 - - 10 - - - -
27/02:00am 12.5 NW 8 12 1013.8 - 0.0 - Cloudy 10 - - - -
27/01:30am 12.7 SW 5 7 1014.2 - 0.0 - Partly cloudy 10 - - - -
27/01:00am 12.7 NNW 5 7 1014.3 - 0.0 - Partly cloudy 10 - - - -
27/12:30am 12.6 NNW 4 6 1014.5 - 0.0 - Partly cloudy 10 - - - -
27/12:00am 13.0 NW 5 6 1014.9 R 0.0 - Cloudy 10 - - - -
 
Date/Time
WST
Temp
°C
Wind Pressure Rain since
9am
mm
Weather Cloud Vis
km
Sea
Height
m
Swell
Dir  Spd
kts
Gust
kts
hPa Trend Height
m
Period
s
Dir
26/11:30pm 13.1 WNW 3 5 1015.1 - 0.0 - Partly cloudy 10 - - - -
26/11:00pm 13.7 WSW 5 7 1015.6 - 0.0 - Partly cloudy 10 - - - -
26/10:30pm 13.7 WSW 5 8 1015.6 - 0.0 - Partly cloudy 10 - - - -
26/10:00pm 13.7 WSW 5 7 1015.6 - 0.0 - Partly cloudy 10 - - - -
26/09:30pm 14.0 SW 7 10 1015.3 - 0.0 - Partly cloudy 10 - - - -
26/09:00pm 14.7 NW 10 13 1014.8 F 0.0 - Cloudy 10 - - - -
26/08:30pm 14.9 NW 10 13 1014.8 - 0.0 - Partly cloudy 10 - - - -
26/08:00pm 14.6 NW 8 10 1015.1 - 0.0 - Partly cloudy 10 - - - -
26/07:30pm 14.1 NW 7 8 1014.8 - 0.0 - Partly cloudy 10 - - - -
26/07:00pm 14.3 WNW 6 7 1014.7 - 0.0 - Partly cloudy 10 - - - -
26/06:30pm 14.8 NW 6 9 1014.4 - 0.0 - - 10 - - - -
26/06:00pm 15.9 WNW 8 11 1014.3 F 0.0 - - 10 - - - -
26/05:30pm 17.2 WNW 9 15 1014.3 - 0.0 - - 10 - - - -
26/05:00pm 17.8 WSW 8 12 1014.4 - 0.0 - Cloudy 10 - - - -
26/04:30pm 17.9 WSW 8 13 1014.3 - 0.0 - Cloudy 10 - - - -
26/04:00pm 18.3 WNW 12 18 1014.1 - 0.0 - Partly cloudy 10 - - - -
26/03:30pm 19.6 WNW 12 19 1014.0 - 0.0 - Partly cloudy 10 - - - -
26/03:00pm 19.3 NW 14 19 1014.0 F 0.0 - Partly cloudy 10 - - - -
26/02:30pm 19.2 NW 15 21 1014.2 - 0.0 - Partly cloudy 10 - - - -
26/02:00pm 18.9 WNW 15 24 1014.4 - 0.0 - Partly cloudy 10 - - - -
26/01:30pm 18.5 WNW 12 21 1014.7 - 0.0 - - 10 - - - -
26/01:00pm 17.7 WNW 12 18 1014.9 - 0.0 - - 10 - - - -
26/12:30pm 17.5 WNW 14 20 1015.4 - 0.0 - - 10 - - - -
26/12:00pm 17.1 WNW 13 22 1016.0 F 0.0 - - 10 - - - -
26/11:30am 17.0 WNW 13 23 1016.5 - 0.0 - - 10 - - - -
26/11:00am 16.1 WNW 13 20 1016.9 - 0.0 - - 10 - - - -
26/10:30am 15.5 NW 14 20 1017.3 - 0.0 - - 10 - - - -
26/10:00am 14.7 NW 15 21 1017.8 - 0.0 - - 10 - - - -
26/09:30am 13.7 NW 17 23 1018.1 - 0.0 - - 10 - - - -
26/09:00am 13.5 NW 13 18 1018.3 F 3.6 - - 10 - - - -
26/08:30am 11.9 NW 14 18 1018.1 - 3.6 - - 10 - - - -
26/08:00am 10.8 NW 14 19 1018.2 - 3.6 - - 10 - - - -
26/07:30am 9.7 NW 12 17 1018.1 - 3.6 - - 10 - - - -
26/07:00am 8.3 NW 10 13 1018.1 - 3.6 - - 10 - - - -
26/06:30am 6.8 NW 12 15 1017.9 - 3.6 - - 10 - - - -
26/06:00am 5.7 NW 9 11 1017.7 F 3.6 - - 10 - - - -
26/05:30am 5.0 WNW 8 10 1017.9 - 3.6 - - 10 - - - -
26/05:00am 5.3 WNW 6 8 1017.8 - 3.6 - - 10 - - - -
26/04:30am 5.9 WNW 4 6 1017.5 - 3.6 - - 10 - - - -
26/04:00am 5.8 NW 6 9 1017.4 - 3.6 - - 10 - - - -
26/03:30am 5.7 NW 6 9 1017.4 - 3.6 - - 10 - - - -
26/03:00am 6.4 NW 9 12 1017.5 S 3.6 - - 10 - - - -
26/02:30am 5.1 WNW 7 8 1017.7 - 3.6 - - 10 - - - -
26/02:00am 5.2 WNW 4 5 1017.8 - 3.6 - - 10 - - - -
26/01:30am 6.3 NW 4 6 1017.9 - 3.6 - - 10 - - - -
26/01:00am 6.2 NW 5 7 1018.1 - 3.6 - - 10 - - - -
26/12:30am 6.6 NNW 5 6 1018.1 - 3.6 - - 10 - - - -
26/12:00am 7.1 NNW 5 6 1018.3 F 3.6 - - 10 - - - -
 
Date/Time
WST
Temp
°C
Wind Pressure Rain since
9am
mm
Weather Cloud Vis
km
Sea
Height
m
Swell
Dir  Spd
kts
Gust
kts
hPa Trend Height
m
Period
s
Dir
25/11:30pm 8.5 W 4 5 1018.5 - 3.6 - - 10 - - - -
25/11:00pm 8.3 W 4 5 1018.8 - 3.6 - - 10 - - - -
25/10:30pm 8.7 SW 6 7 1018.9 - 3.6 - - 10 - - - -
25/10:00pm 9.0 SW 6 8 1019.2 - 3.6 - - 10 - - - -
25/09:30pm 9.3 WSW 6 7 1019.3 - 3.6 - - 10 - - - -
25/09:00pm 9.5 WSW 6 8 1019.3 R 3.6 - - 10 - - - -
25/08:30pm 9.9 SW 7 10 1019.4 - 3.6 - - 10 - - - -
25/08:00pm 10.0 SW 7 11 1019.2 - 3.6 - - 10 - - - -
25/07:30pm 10.4 SW 8 13 1019.0 - 3.6 - Partly cloudy 10 - - - -
25/07:00pm 10.6 SW 8 12 1018.8 - 3.6 - Partly cloudy 10 - - - -
25/06:30pm 10.8 SW 8 13 1018.3 - 3.6 - Partly cloudy 10 - - - -
25/06:00pm 10.8 SW 8 12 1018.0 R 3.6 - - 10 - - - -
25/05:30pm 11.6 SW 11 15 1017.7 - 3.6 - Partly cloudy 10 - - - -
25/05:00pm 12.3 SW 10 15 1017.3 - 3.6 - - 10 - - - -
25/04:30pm 12.6 SW 11 18 1017.1 - 3.6 - Partly cloudy 10 - - - -
25/04:00pm 12.8 SW 12 21 1016.8 - 3.6 - Partly cloudy 10 - - - -
25/03:30pm 13.1 SW 14 21 1016.7 - 3.6 - - 10 - - - -
25/03:00pm 13.1 SW 15 22 1016.3 R 3.6 - Mostly clear 10 - - - -
25/02:30pm 13.0 SW 13 20 1016.0 - 3.6 - Cloudy 10 - - - -
25/02:00pm 13.2 SW 13 22 1015.6 - 3.6 - Partly cloudy 10 - - - -
25/01:30pm 12.8 SW 16 24 1015.2 - 3.6 - Partly cloudy 10 - - - -
25/01:07pm 12.9 SW 17 27 1015.2 - 3.6 - Partly cloudy 10 - - - -
25/01:00pm 12.6 SW 16 25 1015.2 - 3.6 - Partly cloudy 10 - - - -
25/12:42pm 12.2 SW 15 25 1015.3 - 3.6 - Cloudy 10 - - - -
25/12:30pm 12.0 SW 13 23 1015.1 - 3.6 - Partly cloudy 10 - - - -
25/12:00pm 12.1 SW 13 20 1015.0 R 3.6 Recent precip. Cloudy 10 - - - -
25/11:42am 12.3 SW 11 19 1014.8 - 3.6 - Partly cloudy 10 - - - -
25/11:30am 11.4 SW 11 19 1014.8 - 3.6 - Partly cloudy 6 - - - -
25/11:16am 11.0 SSW 14 27 1014.6 - 3.6 - Partly cloudy 7 - - - -
25/11:00am 12.5 SSW 13 19 1014.4 - 3.4 - Partly cloudy 10 - - - -
25/10:39am 12.3 SSW 13 21 1014.1 - 3.4 - Partly cloudy 10 - - - -
25/10:30am 11.7 SSW 11 17 1014.1 - 3.4 - Partly cloudy 8 - - - -
25/10:17am 11.3 SSW 13 18 1014.1 - 3.4 - Partly cloudy 6 - - - -
25/10:16am 11.5 SSW 13 18 1014.0 - 3.2 - Partly cloudy 8 - - - -
25/10:00am 11.2 SSW 12 18 1013.9 - 2.8 - Partly cloudy 3 - - - -
25/09:47am 12.1 SSW 12 18 1013.8 - 0.6 - Partly cloudy 6 - - - -
25/09:41am 13.1 SW 11 18 1013.6 - 0.2 - Partly cloudy 10 - - - -
25/09:30am 12.4 SW 12 23 1013.7 - 0.0 - Partly cloudy 6 - - - -
25/09:22am 12.0 WSW 16 29 1013.7 - 0.0 - Partly cloudy 7 - - - -
25/09:19am 13.0 W 15 29 1013.6 - 0.0 - Partly cloudy 10 - - - -
25/09:00am 14.0 WNW 12 19 1013.3 F 0.0 - Partly cloudy 10 - - - -
25/08:30am 13.2 WNW 11 16 1013.3 - 0.0 - Partly cloudy 10 - - - -
25/08:00am 11.4 WNW 11 16 1013.2 - 0.0 - - 10 - - - -
25/07:30am 10.6 NW 11 17 1013.1 - 0.0 - - 10 - - - -
25/07:00am 9.2 NW 12 16 1013.1 - 0.0 - - 10 - - - -
25/06:30am 8.9 NW 10 15 1013.0 - 0.0 - - 10 - - - -
25/06:00am 8.4 NW 7 11 1012.8 F 0.0 - - 10 - - - -
25/05:30am 7.9 NW 6 8 1012.7 - 0.0 - - 10 - - - -
25/05:00am 7.4 NW 6 8 1012.7 - 0.0 - - 10 - - - -
25/04:30am 7.9 NNW 5 8 1012.5 - 0.0 - - 10 - - - -
25/04:00am 8.0 N 7 10 1012.4 - 0.0 - - 10 - - - -
25/03:30am 8.1 N 8 11 1012.3 - 0.0 - - 10 - - - -
25/03:00am 8.2 N 10 13 1012.2 F 0.0 - Cloudy 10 - - - -
25/02:30am 7.7 N 9 12 1012.3 - 0.0 - - 10 - - - -
25/02:00am 7.2 N 7 9 1012.5 - 0.0 - - 10 - - - -
25/01:30am 6.9 N 6 8 1013.0 - 0.0 - - 10 - - - -
25/01:00am 7.7 NNE 7 8 1013.1 - 0.0 - - 10 - - - -
25/12:30am 8.0 N 6 8 1013.6 - 0.0 - - 10 - - - -
25/12:00am 7.7 NNW 5 7 1014.0 R 0.0 - - 10 - - - -
 
Date/Time
WST
Temp
°C
Wind Pressure Rain since
9am
mm
Weather Cloud Vis
km
Sea
Height
m
Swell
Dir  Spd
kts
Gust
kts
hPa Trend Height
m
Period
s
Dir
24/11:30pm 8.1 NW 2 5 1014.1 - 0.0 - - 10 - - - -
24/11:00pm 7.7 NNW 4 5 1014.1 - 0.0 - - 10 - - - -
24/10:30pm 8.2 N 5 7 1014.0 - 0.0 - - 10 - - - -
24/10:00pm 8.1 N 5 6 1014.2 - 0.0 - - 10 - - - -
24/09:30pm 8.5 N 6 7 1014.3 - 0.0 - - 10 - - - -
24/09:00pm 8.8 N 6 7 1014.4 F 0.0 - - 10 - - - -
24/08:30pm 9.5 N 5 6 1014.6 - 0.0 - - 10 - - - -
24/08:00pm 10.1 N 5 5 1014.6 - 0.0 - - 10 - - - -
24/07:30pm 10.9 CALM 0 0 1014.4 - 0.0 - - 10 - - - -
24/07:00pm 11.6 CALM 0 0 1014.1 - 0.0 - - 10 - - - -
24/06:30pm 11.9 SSE 3 5 1013.7 - 0.0 - - 10 - - - -
24/06:00pm 12.0 SSW 5 5 1013.6 F 0.0 - - 10 - - - -
24/05:30pm 12.5 S 7 9 1013.7 - 0.0 - - 10 - - - -
24/05:00pm 12.9 S 8 11 1013.7 - 0.0 - - 10 - - - -

Other Formats:

Comma delimited format used in spreadsheet applications
http://www.bom.gov.au/fwo/IDW60701/IDW60701.94638.axf

JavaScript Object Notation format (JSON) in row-major order
http://www.bom.gov.au/fwo/IDW60701/IDW60701.94638.json